createdAt,value
2023-02-26T00:01:51.822Z,100302.75
2023-02-26T00:03:56.018Z,100310.00
2023-02-26T00:05:59.852Z,100311.06
2023-02-26T00:08:01.516Z,100307.03
2023-02-26T00:10:04.030Z,100308.31
2023-02-26T00:12:06.398Z,100313.94
2023-02-26T00:14:11.193Z,100305.34
2023-02-26T00:16:26.482Z,100314.69
2023-02-26T00:18:29.077Z,100314.88
2023-02-26T00:20:31.136Z,100314.56
2023-02-26T00:22:33.321Z,100311.25
2023-02-26T00:24:34.917Z,100315.75
2023-02-26T00:26:36.567Z,100316.31
2023-02-26T00:28:38.907Z,100321.28
2023-02-26T00:30:41.295Z,100323.94
2023-02-26T00:32:44.903Z,100323.59
2023-02-26T00:34:48.098Z,100316.44
2023-02-26T00:37:00.346Z,100323.63
2023-02-26T00:39:16.377Z,100314.00
2023-02-26T00:41:18.591Z,100314.75
2023-02-26T00:43:22.092Z,100321.44
2023-02-26T00:45:24.315Z,100321.53
2023-02-26T00:47:33.543Z,100319.66
2023-02-26T00:49:49.453Z,100324.13
2023-02-26T00:51:55.355Z,100321.09
2023-02-26T00:54:05.231Z,100320.66
2023-02-26T00:56:06.866Z,100323.91
2023-02-26T00:58:08.433Z,100323.34
2023-02-26T01:00:11.766Z,100319.66
2023-02-26T01:02:13.288Z,100319.47
2023-02-26T01:04:16.640Z,100323.19
2023-02-26T01:06:21.956Z,100321.03
2023-02-26T01:08:37.907Z,100321.28
2023-02-26T01:10:39.919Z,100320.66
2023-02-26T01:12:42.412Z,100319.47
2023-02-26T01:14:44.755Z,100318.47
2023-02-26T01:16:53.945Z,100323.34
2023-02-26T01:19:03.112Z,100323.91
2023-02-26T01:21:08.119Z,100319.28
2023-02-26T01:23:15.612Z,100323.59
2023-02-26T01:25:24.516Z,100320.19
2023-02-26T01:27:26.418Z,100323.25
2023-02-26T01:29:28.270Z,100318.53
2023-02-26T01:31:38.484Z,100323.38
2023-02-26T01:33:44.369Z,100325.06
2023-02-26T01:35:50.342Z,100316.25
2023-02-26T01:37:57.885Z,100315.44
2023-02-26T01:40:21.749Z,100323.03
2023-02-26T01:42:27.198Z,100321.88
2023-02-26T01:44:34.262Z,100324.81
2023-02-26T01:46:45.069Z,100320.22
2023-02-26T01:48:50.642Z,100321.84
2023-02-26T01:50:52.272Z,100314.31
2023-02-26T01:53:20.019Z,100316.41
2023-02-26T01:55:26.660Z,100323.81
2023-02-26T01:57:28.346Z,100322.94
2023-02-26T01:59:29.888Z,100317.75
2023-02-26T02:01:32.292Z,100321.25
2023-02-26T02:03:34.323Z,100319.47
2023-02-26T02:05:41.988Z,100322.88
2023-02-26T02:07:43.561Z,100330.88
2023-02-26T02:09:45.165Z,100326.13
2023-02-26T02:11:59.916Z,100333.00
2023-02-26T02:14:12.713Z,100322.81
2023-02-26T02:16:22.637Z,100324.19
2023-02-26T02:18:37.205Z,100318.34
2023-02-26T02:21:01.456Z,100323.75
2023-02-26T02:23:16.112Z,100328.63
2023-02-26T02:25:35.923Z,100331.03
2023-02-26T02:27:47.975Z,100333.22
2023-02-26T02:30:30.957Z,100331.34
2023-02-26T02:32:39.237Z,100332.66
2023-02-26T02:34:46.080Z,100332.47
2023-02-26T02:36:54.899Z,100332.00
2023-02-26T02:39:02.340Z,100332.00
2023-02-26T02:41:09.568Z,100333.31
2023-02-26T02:43:15.007Z,100336.47
2023-02-26T02:45:23.601Z,100339.44
2023-02-26T02:47:28.822Z,100334.75
2023-02-26T02:49:37.443Z,100340.53
2023-02-26T02:51:44.704Z,100334.19
2023-02-26T02:53:49.490Z,100335.41
2023-02-26T02:55:56.242Z,100337.50
2023-02-26T02:58:02.416Z,100336.31
2023-02-26T03:00:08.940Z,100337.97
2023-02-26T03:02:13.751Z,100340.72
2023-02-26T03:04:16.780Z,100343.78
2023-02-26T03:06:19.821Z,100346.25
2023-02-26T03:08:27.671Z,100347.44
2023-02-26T03:10:29.790Z,100346.50
2023-02-26T03:12:32.672Z,100350.66
2023-02-26T03:14:34.635Z,100357.78
2023-02-26T03:16:49.382Z,100365.22
2023-02-26T03:18:55.720Z,100358.84
2023-02-26T03:21:04.721Z,100365.47
2023-02-26T03:23:14.273Z,100366.28
2023-02-26T03:25:21.165Z,100371.19
2023-02-26T03:27:27.332Z,100371.31
2023-02-26T03:29:38.213Z,100370.84
2023-02-26T03:31:49.379Z,100381.13
2023-02-26T03:33:57.976Z,100375.31
2023-02-26T03:36:06.353Z,100382.63
2023-02-26T03:38:14.406Z,100382.47
2023-02-26T03:40:19.282Z,100382.47
2023-02-26T03:42:28.474Z,100387.66
2023-02-26T03:44:34.685Z,100392.69
2023-02-26T03:46:41.042Z,100395.09
2023-02-26T03:48:44.651Z,100391.84
2023-02-26T03:50:51.294Z,100393.78
2023-02-26T03:52:54.613Z,100404.84
2023-02-26T03:55:08.638Z,100403.94
2023-02-26T03:57:10.203Z,100401.97
2023-02-26T03:59:12.334Z,100402.31
2023-02-26T04:01:19.955Z,100404.31
2023-02-26T04:03:26.668Z,100413.50
2023-02-26T04:05:30.822Z,100416.47
2023-02-26T04:07:32.850Z,100415.69
2023-02-26T04:09:34.472Z,100413.09
2023-02-26T04:11:38.784Z,100419.88
2023-02-26T04:13:40.393Z,100420.69
2023-02-26T04:15:41.903Z,100429.41
2023-02-26T04:17:43.496Z,100432.25
2023-02-26T04:19:45.047Z,100434.81
2023-02-26T04:21:46.892Z,100438.78
2023-02-26T04:23:48.977Z,100442.03
2023-02-26T04:25:50.955Z,100439.19
2023-02-26T04:27:53.846Z,100434.81
2023-02-26T04:29:57.707Z,100440.47
2023-02-26T04:31:59.602Z,100446.88
2023-02-26T04:34:01.323Z,100441.53
2023-02-26T04:36:03.371Z,100445.97
2023-02-26T04:38:05.048Z,100453.63
2023-02-26T04:40:08.009Z,100445.19
2023-02-26T04:42:09.608Z,100453.44
2023-02-26T04:44:12.662Z,100450.63
2023-02-26T04:46:14.322Z,100464.66
2023-02-26T04:48:16.927Z,100463.94
2023-02-26T04:50:18.713Z,100467.00
2023-02-26T04:52:20.368Z,100463.06
2023-02-26T04:54:21.990Z,100464.78
2023-02-26T04:56:23.864Z,100463.41
2023-02-26T04:58:25.740Z,100470.13
2023-02-26T05:00:28.784Z,100467.84
2023-02-26T05:02:30.296Z,100465.00
2023-02-26T05:04:32.057Z,100475.78
2023-02-26T05:06:33.684Z,100474.06
2023-02-26T05:08:35.336Z,100475.94
2023-02-26T05:10:36.921Z,100478.22
2023-02-26T05:12:38.760Z,100479.84
2023-02-26T05:14:40.271Z,100483.47
2023-02-26T05:16:43.311Z,100484.28
2023-02-26T05:18:44.947Z,100489.16
2023-02-26T05:20:51.076Z,100485.78
2023-02-26T05:22:52.640Z,100491.94
2023-02-26T05:24:54.175Z,100501.09
2023-02-26T05:26:55.744Z,100497.13
2023-02-26T05:28:57.426Z,100500.75
2023-02-26T05:30:59.533Z,100500.50
2023-02-26T05:33:02.714Z,100503.63
2023-02-26T05:35:05.113Z,100510.06
2023-02-26T05:37:06.764Z,100511.28
2023-02-26T05:39:09.279Z,100509.13
2023-02-26T05:41:11.251Z,100508.72
2023-02-26T05:43:12.901Z,100507.94
2023-02-26T05:45:14.495Z,100507.00
2023-02-26T05:47:16.441Z,100515.78
2023-02-26T05:49:19.346Z,100518.50
2023-02-26T05:51:20.993Z,100519.34
2023-02-26T05:53:22.540Z,100527.25
2023-02-26T05:55:24.728Z,100527.84
2023-02-26T05:57:26.358Z,100531.56
2023-02-26T05:59:27.904Z,100529.59
2023-02-26T06:01:29.840Z,100523.22
2023-02-26T06:03:31.450Z,100533.00
2023-02-26T06:05:34.421Z,100530.78
2023-02-26T06:07:36.507Z,100541.91
2023-02-26T06:09:38.567Z,100537.97
2023-02-26T06:11:40.127Z,100551.06
2023-02-26T06:13:41.734Z,100550.50
2023-02-26T06:15:43.451Z,100557.69
2023-02-26T06:17:47.855Z,100555.13
2023-02-26T06:19:49.427Z,100555.38
2023-02-26T06:21:52.309Z,100558.50
2023-02-26T06:23:53.892Z,100553.72
2023-02-26T06:25:55.637Z,100555.03
2023-02-26T06:27:57.357Z,100565.91
2023-02-26T06:29:58.963Z,100572.53
2023-02-26T06:32:08.011Z,100576.25
2023-02-26T06:34:09.719Z,100583.88
2023-02-26T06:36:11.701Z,100594.00
2023-02-26T06:38:15.171Z,100603.03
2023-02-26T06:40:17.665Z,100612.88
2023-02-26T06:42:20.202Z,100614.91
2023-02-26T06:44:21.954Z,100625.59
2023-02-26T06:46:24.159Z,100624.69
2023-02-26T06:48:25.976Z,100625.63
2023-02-26T06:50:27.900Z,100625.06
2023-02-26T06:52:29.844Z,100634.00
2023-02-26T06:54:34.148Z,100637.22
2023-02-26T06:56:35.984Z,100639.19
2023-02-26T06:58:37.615Z,100647.22
2023-02-26T07:00:39.782Z,100651.75
2023-02-26T07:02:41.434Z,100653.72
2023-02-26T07:04:43.290Z,100654.31
2023-02-26T07:06:45.054Z,100657.22
2023-02-26T07:08:46.733Z,100664.16
2023-02-26T07:10:50.145Z,100661.72
2023-02-26T07:12:51.808Z,100664.63
2023-02-26T07:14:53.386Z,100672.28
2023-02-26T07:16:55.021Z,100665.66
2023-02-26T07:18:56.632Z,100664.31
2023-02-26T07:20:58.205Z,100664.88
2023-02-26T07:22:59.789Z,100668.72
2023-02-26T07:25:01.409Z,100669.88
2023-02-26T07:27:04.524Z,100672.44
2023-02-26T07:29:06.309Z,100674.84
2023-02-26T07:31:08.023Z,100673.38
2023-02-26T07:33:11.254Z,100678.69
2023-02-26T07:35:13.678Z,100684.72
2023-02-26T07:37:15.372Z,100685.06
2023-02-26T07:39:17.028Z,100691.56
2023-02-26T07:41:18.592Z,100695.16
2023-02-26T07:43:21.527Z,100696.81
2023-02-26T07:45:23.696Z,100683.66
2023-02-26T07:47:25.492Z,100697.81
2023-02-26T07:49:27.328Z,100698.66
2023-02-26T07:51:30.502Z,100697.97
2023-02-26T07:53:34.204Z,100699.00
2023-02-26T07:55:35.831Z,100694.00
2023-02-26T07:57:37.453Z,100700.63
2023-02-26T07:59:40.490Z,100700.50
2023-02-26T08:01:46.485Z,100705.16
2023-02-26T08:03:48.306Z,100711.66
2023-02-26T08:05:49.997Z,100704.44
2023-02-26T08:07:51.521Z,100711.75
2023-02-26T08:09:53.054Z,100698.41
2023-02-26T08:11:54.714Z,100708.63
2023-02-26T08:13:56.329Z,100712.06
2023-02-26T08:15:59.393Z,100713.59
2023-02-26T08:18:01.098Z,100711.91
2023-02-26T08:20:02.688Z,100713.34
2023-02-26T08:22:04.346Z,100715.38
2023-02-26T08:24:06.230Z,100715.31
2023-02-26T08:26:10.269Z,100718.63
2023-02-26T08:28:12.036Z,100719.19
2023-02-26T08:30:14.329Z,100711.78
2023-02-26T08:32:18.283Z,100714.66
2023-02-26T08:34:19.948Z,100724.66
2023-02-26T08:36:21.511Z,100716.25
2023-02-26T08:38:23.073Z,100716.84
2023-02-26T08:40:24.804Z,100715.47
2023-02-26T08:42:26.546Z,100724.34
2023-02-26T08:44:28.114Z,100722.97
2023-02-26T08:46:30.151Z,100728.78
2023-02-26T08:48:33.303Z,100728.56
2023-02-26T08:50:34.874Z,100741.41
2023-02-26T08:52:36.535Z,100739.22
2023-02-26T08:54:38.142Z,100743.78
2023-02-26T08:56:39.791Z,100741.25
2023-02-26T08:58:41.447Z,100751.16
2023-02-26T09:00:43.414Z,100752.31
2023-02-26T09:02:45.423Z,100763.66
2023-02-26T09:04:48.391Z,100760.47
2023-02-26T09:06:49.989Z,100763.88
2023-02-26T09:08:51.542Z,100769.50
2023-02-26T09:10:53.145Z,100774.38
2023-02-26T09:12:54.837Z,100763.91
2023-02-26T09:14:56.363Z,100770.28
2023-02-26T09:16:57.943Z,100766.22
2023-02-26T09:18:59.577Z,100777.47
2023-02-26T09:21:02.801Z,100772.72
2023-02-26T09:23:04.437Z,100776.38
2023-02-26T09:25:07.075Z,100774.28
2023-02-26T09:27:08.772Z,100772.38
2023-02-26T09:29:10.464Z,100786.41
2023-02-26T09:31:12.176Z,100785.06
2023-02-26T09:33:16.618Z,100798.63
2023-02-26T09:35:18.520Z,100785.84
2023-02-26T09:37:21.426Z,100793.25
2023-02-26T09:39:22.960Z,100787.28
2023-02-26T09:41:30.159Z,100784.75
2023-02-26T09:43:49.424Z,100787.72
2023-02-26T09:45:52.940Z,100787.34
2023-02-26T09:47:55.886Z,100788.19
2023-02-26T09:50:02.719Z,100795.97
2023-02-26T09:52:18.531Z,100796.78
2023-02-26T09:54:24.512Z,100800.38
2023-02-26T09:56:27.474Z,100797.13
2023-02-26T09:58:32.328Z,100794.41
2023-02-26T10:00:37.992Z,100793.31
2023-02-26T10:02:49.727Z,100806.72
2023-02-26T10:05:00.874Z,100792.47
2023-02-26T10:07:13.708Z,100801.50
2023-02-26T10:09:29.978Z,100801.34
2023-02-26T10:11:43.854Z,100806.22
2023-02-26T10:13:57.757Z,100801.44
2023-02-26T10:16:07.775Z,100806.44
2023-02-26T10:18:13.296Z,100810.91
2023-02-26T10:20:20.074Z,100808.75
2023-02-26T10:22:27.303Z,100819.69
2023-02-26T10:24:37.910Z,100815.28
2023-02-26T10:26:43.616Z,100822.22
2023-02-26T10:28:54.435Z,100819.31
2023-02-26T10:31:00.542Z,100819.63
2023-02-26T10:33:13.743Z,100815.56
2023-02-26T10:35:17.380Z,100817.34
2023-02-26T10:37:23.141Z,100821.34
2023-02-26T10:39:39.177Z,100819.56
2023-02-26T10:41:41.092Z,100826.59
2023-02-26T10:43:47.765Z,100818.34
2023-02-26T10:46:09.418Z,100816.06
2023-02-26T10:48:24.137Z,100815.03
2023-02-26T10:50:25.993Z,100820.94
2023-02-26T10:52:31.193Z,100821.34
2023-02-26T10:54:37.289Z,100821.78
2023-02-26T10:56:46.333Z,100825.50
2023-02-26T10:58:48.013Z,100826.84
2023-02-26T11:00:52.357Z,100829.19
2023-02-26T11:02:55.935Z,100828.38
2023-02-26T11:05:07.139Z,100825.94
2023-02-26T11:07:09.835Z,100829.94
2023-02-26T11:09:19.921Z,100839.91
2023-02-26T11:11:42.483Z,100821.75
2023-02-26T11:13:44.776Z,100826.00
2023-02-26T11:15:52.224Z,100827.25
2023-02-26T11:17:56.880Z,100819.19
2023-02-26T11:20:02.264Z,100825.72
2023-02-26T11:22:05.446Z,100829.44
2023-02-26T11:24:11.958Z,100830.53
2023-02-26T11:26:17.044Z,100832.34
2023-02-26T11:28:22.940Z,100828.06
2023-02-26T11:30:26.889Z,100834.16
2023-02-26T11:32:31.827Z,100838.09
2023-02-26T11:34:33.534Z,100835.91
2023-02-26T11:36:39.410Z,100836.56
2023-02-26T11:38:44.765Z,100832.66
2023-02-26T11:40:49.438Z,100838.66
2023-02-26T11:42:55.088Z,100840.78
2023-02-26T11:44:58.228Z,100834.69
2023-02-26T11:47:03.767Z,100842.91
2023-02-26T11:49:05.487Z,100846.78
2023-02-26T11:51:08.961Z,100841.25
2023-02-26T11:53:18.706Z,100837.41
2023-02-26T11:55:22.504Z,100842.34
2023-02-26T11:57:26.274Z,100843.38
2023-02-26T11:59:31.496Z,100845.91
2023-02-26T12:01:36.506Z,100844.28
2023-02-26T12:03:39.895Z,100843.78
2023-02-26T12:05:41.707Z,100836.38
2023-02-26T12:07:43.538Z,100843.16
2023-02-26T12:09:46.270Z,100846.78
2023-02-26T12:12:08.885Z,100859.28
2023-02-26T12:14:29.860Z,100850.31
2023-02-26T12:16:39.743Z,100850.81
2023-02-26T12:18:53.986Z,100853.50
2023-02-26T12:21:06.009Z,100858.28
2023-02-26T12:23:29.790Z,100851.31
2023-02-26T12:25:52.978Z,100856.59
2023-02-26T12:28:09.045Z,100858.00
2023-02-26T12:30:27.094Z,100860.63
2023-02-26T12:32:50.612Z,100852.03
2023-02-26T12:35:25.264Z,100853.50
2023-02-26T12:37:38.242Z,100854.56
2023-02-26T12:39:53.460Z,100850.97
2023-02-26T12:42:09.922Z,100844.47
2023-02-26T12:44:23.696Z,100844.88
2023-02-26T12:46:44.037Z,100848.53
2023-02-26T12:49:07.609Z,100852.25
2023-02-26T12:51:20.009Z,100852.31
2023-02-26T12:53:49.088Z,100836.91
2023-02-26T12:56:04.580Z,100853.22
2023-02-26T12:58:26.335Z,100852.03
2023-02-26T13:00:44.753Z,100851.44
2023-02-26T13:03:17.454Z,100842.69
2023-02-26T13:05:29.382Z,100850.00
2023-02-26T13:07:56.844Z,100842.06
2023-02-26T13:10:05.632Z,100849.66
2023-02-26T13:12:21.719Z,100843.03
2023-02-26T13:14:33.161Z,100844.47
2023-02-26T13:16:49.305Z,100845.19
2023-02-26T13:19:00.660Z,100842.66
2023-02-26T13:21:08.667Z,100846.41
2023-02-26T13:23:13.885Z,100852.16
2023-02-26T13:25:22.212Z,100857.22
2023-02-26T13:27:28.321Z,100866.91
2023-02-26T13:29:35.450Z,100863.06
2023-02-26T13:31:43.270Z,100867.38
2023-02-26T13:33:46.234Z,100861.75
2023-02-26T13:35:52.490Z,100864.44
2023-02-26T13:37:58.576Z,100867.19
2023-02-26T13:40:33.682Z,100866.47
2023-02-26T13:42:43.459Z,100860.38
2023-02-26T13:44:54.654Z,100861.25
2023-02-26T13:47:21.226Z,100863.72
2023-02-26T13:49:29.010Z,100874.19
2023-02-26T13:51:35.654Z,100874.13
2023-02-26T13:53:57.572Z,100877.50
2023-02-26T13:56:07.843Z,100883.00
2023-02-26T13:58:33.657Z,100891.41
2023-02-26T14:00:36.266Z,100891.88
2023-02-26T14:02:47.382Z,100885.19
2023-02-26T14:04:53.934Z,100895.66
2023-02-26T14:06:59.872Z,100901.00
2023-02-26T14:09:05.392Z,100889.38
2023-02-26T14:11:43.850Z,100888.06
2023-02-26T14:14:07.180Z,100896.91
2023-02-26T14:16:13.404Z,100899.13
2023-02-26T14:18:30.357Z,100895.41
2023-02-26T14:20:34.572Z,100906.59
2023-02-26T14:22:37.480Z,100906.13
2023-02-26T14:24:52.037Z,100911.25
2023-02-26T14:27:09.490Z,100905.97
2023-02-26T14:29:16.785Z,100909.91
2023-02-26T14:31:20.799Z,100907.88
2023-02-26T14:33:29.287Z,100908.50
2023-02-26T14:35:34.521Z,100909.16
2023-02-26T14:37:38.261Z,100923.72
2023-02-26T14:39:45.728Z,100916.34
2023-02-26T14:41:47.817Z,100921.63
2023-02-26T14:43:56.013Z,100924.69
2023-02-26T14:45:57.697Z,100920.97
2023-02-26T14:48:01.419Z,100919.84
2023-02-26T14:50:05.859Z,100932.63
2023-02-26T14:52:26.799Z,100922.47
2023-02-26T14:54:38.988Z,100923.84
2023-02-26T14:56:54.194Z,100920.59
2023-02-26T14:59:07.861Z,100921.88
2023-02-26T15:01:24.281Z,100914.47
2023-02-26T15:03:55.602Z,100926.00
2023-02-26T15:06:21.329Z,100927.50
2023-02-26T15:08:37.746Z,100930.66
2023-02-26T15:10:51.734Z,100939.94
2023-02-26T15:13:09.333Z,100935.00
2023-02-26T15:15:24.118Z,100941.91
2023-02-26T15:17:54.982Z,100938.03
2023-02-26T15:20:14.990Z,100929.28
2023-02-26T15:24:33.166Z,100940.19
2023-02-26T15:26:38.767Z,100946.50
2023-02-26T15:28:42.120Z,100952.56
2023-02-26T15:30:48.285Z,100949.06
2023-02-26T15:32:57.113Z,100945.19
2023-02-26T15:35:00.711Z,100953.09
2023-02-26T15:37:02.335Z,100946.94
2023-02-26T15:39:07.083Z,100949.31
2023-02-26T15:41:09.878Z,100952.78
2023-02-26T15:43:16.176Z,100944.88
2023-02-26T15:45:26.497Z,100958.53
2023-02-26T15:47:29.807Z,100954.78
2023-02-26T15:49:35.573Z,100959.63
2023-02-26T15:51:37.663Z,100951.53
2023-02-26T15:53:43.159Z,100960.28
2023-02-26T15:55:48.734Z,100956.19
2023-02-26T15:57:51.124Z,100955.41
2023-02-26T15:59:54.770Z,100961.28
2023-02-26T16:01:58.492Z,100960.34
2023-02-26T16:04:03.159Z,100962.38
2023-02-26T16:06:10.976Z,100970.25
2023-02-26T16:08:14.420Z,100969.88
2023-02-26T16:10:18.489Z,100967.41
2023-02-26T16:12:22.559Z,100968.63
2023-02-26T16:14:27.136Z,100970.59
2023-02-26T16:16:37.158Z,100968.16
2023-02-26T16:18:41.794Z,100975.59
2023-02-26T16:20:45.854Z,100984.47
2023-02-26T16:22:49.629Z,100978.59
2023-02-26T16:24:54.532Z,100981.88
2023-02-26T16:26:58.901Z,100974.09
2023-02-26T16:29:04.605Z,100967.75
2023-02-26T16:31:06.695Z,100963.06
2023-02-26T16:33:13.047Z,100981.69
2023-02-26T16:35:21.187Z,100977.94
2023-02-26T16:37:26.429Z,100981.00
2023-02-26T16:39:31.179Z,100989.78
2023-02-26T16:41:35.881Z,100998.28
2023-02-26T16:43:50.790Z,101001.41
2023-02-26T16:45:56.135Z,101003.53
2023-02-26T16:47:59.616Z,101002.66
2023-02-26T16:50:02.686Z,101009.59
2023-02-26T16:52:13.789Z,101012.88
2023-02-26T16:54:20.536Z,101020.44
2023-02-26T16:56:27.537Z,101020.44
2023-02-26T16:58:31.796Z,101022.84
2023-02-26T17:00:34.434Z,101026.06
2023-02-26T17:02:38.460Z,101030.19
2023-02-26T17:04:53.186Z,101036.53
2023-02-26T17:06:55.637Z,101037.94
2023-02-26T17:09:01.115Z,101043.41
2023-02-26T17:11:06.094Z,101041.34
2023-02-26T17:13:15.061Z,101047.66
2023-02-26T17:15:18.846Z,101043.00
2023-02-26T17:17:20.571Z,101052.31
2023-02-26T17:19:22.152Z,101048.13
2023-02-26T17:21:23.933Z,101051.97
2023-02-26T17:23:30.241Z,101053.81
2023-02-26T17:25:38.697Z,101065.31
2023-02-26T17:27:40.327Z,101069.03
2023-02-26T17:29:45.016Z,101066.69
2023-02-26T17:31:48.554Z,101069.84
2023-02-26T17:33:50.120Z,101072.03
2023-02-26T17:35:53.120Z,101077.72
2023-02-26T17:37:55.218Z,101077.72
2023-02-26T17:39:56.845Z,101082.50
2023-02-26T17:41:59.804Z,101086.78
2023-02-26T17:44:01.436Z,101091.59
2023-02-26T17:46:05.130Z,101094.16
2023-02-26T17:48:07.751Z,101100.69
2023-02-26T17:50:20.680Z,101099.44
2023-02-26T17:52:22.261Z,101108.72
2023-02-26T17:54:23.817Z,101106.63
2023-02-26T17:56:27.807Z,101104.19
2023-02-26T17:58:34.338Z,101112.56
2023-02-26T18:00:35.875Z,101108.13
2023-02-26T18:02:37.446Z,101119.97
2023-02-26T18:04:39.164Z,101112.31
2023-02-26T18:06:40.847Z,101116.72
2023-02-26T18:08:42.751Z,101114.63
2023-02-26T18:10:44.311Z,101119.53
2023-02-26T18:12:45.985Z,101123.94
2023-02-26T18:14:49.626Z,101121.03
2023-02-26T18:16:51.282Z,101127.84
2023-02-26T18:18:52.869Z,101135.19
2023-02-26T18:20:54.938Z,101136.47
2023-02-26T18:22:56.530Z,101129.38
2023-02-26T18:24:58.081Z,101142.75
2023-02-26T18:26:59.693Z,101143.97
2023-02-26T18:29:01.319Z,101143.38
2023-02-26T18:31:04.718Z,101140.44
2023-02-26T18:33:06.821Z,101140.78
2023-02-26T18:35:09.177Z,101144.41
2023-02-26T18:37:17.242Z,101155.41
2023-02-26T18:39:21.217Z,101161.19
2023-02-26T18:41:22.909Z,101163.84
2023-02-26T18:43:24.528Z,101170.78
2023-02-26T18:45:26.165Z,101160.84
2023-02-26T18:47:29.052Z,101171.53
2023-02-26T18:49:30.673Z,101170.22
2023-02-26T18:51:32.257Z,101175.94
2023-02-26T18:53:33.820Z,101184.75
2023-02-26T18:55:37.158Z,101176.91
2023-02-26T18:57:40.276Z,101193.06
2023-02-26T18:59:44.961Z,101184.56
2023-02-26T19:01:46.776Z,101185.34
2023-02-26T19:03:49.752Z,101180.09
2023-02-26T19:05:58.221Z,101180.31
2023-02-26T19:07:59.767Z,101188.53
2023-02-26T19:10:01.365Z,101186.69
2023-02-26T19:12:03.644Z,101195.28
2023-02-26T19:14:05.295Z,101194.28
2023-02-26T19:16:07.444Z,101195.06
2023-02-26T19:18:09.127Z,101195.66
2023-02-26T19:20:13.589Z,101194.03
2023-02-26T19:22:15.656Z,101198.16
2023-02-26T19:24:17.234Z,101196.56
2023-02-26T19:26:18.810Z,101193.75
2023-02-26T19:28:20.494Z,101199.38
2023-02-26T19:30:23.159Z,101196.94
2023-02-26T19:32:24.876Z,101203.44
2023-02-26T19:34:26.851Z,101203.38
2023-02-26T19:36:29.810Z,101204.94
2023-02-26T19:38:33.284Z,101204.50
2023-02-26T19:40:34.852Z,101208.53
2023-02-26T19:42:36.503Z,101205.69
2023-02-26T19:44:38.147Z,101211.06
2023-02-26T19:46:39.830Z,101213.38
2023-02-26T19:48:41.768Z,101205.22
2023-02-26T19:50:46.312Z,101209.09
2023-02-26T19:52:49.263Z,101222.69
2023-02-26T19:54:50.760Z,101220.16
2023-02-26T19:56:52.678Z,101227.78
2023-02-26T19:58:54.266Z,101234.97
2023-02-26T20:00:56.404Z,101228.97
2023-02-26T20:02:58.004Z,101238.84
2023-02-26T20:04:59.665Z,101232.28
2023-02-26T20:07:01.232Z,101231.81
2023-02-26T20:09:04.832Z,101232.91
2023-02-26T20:11:07.208Z,101234.91
2023-02-26T20:13:08.842Z,101236.13
2023-02-26T20:15:11.087Z,101238.47
2023-02-26T20:17:12.675Z,101238.22
2023-02-26T20:19:14.185Z,101240.44
2023-02-26T20:21:15.754Z,101242.03
2023-02-26T20:23:17.414Z,101245.81
2023-02-26T20:25:20.290Z,101247.84
2023-02-26T20:27:21.835Z,101247.19
2023-02-26T20:29:23.410Z,101249.94
2023-02-26T20:31:25.448Z,101246.44
2023-02-26T20:33:27.205Z,101242.06
2023-02-26T20:35:31.415Z,101252.47
2023-02-26T20:37:33.009Z,101254.75
2023-02-26T20:39:34.684Z,101255.34
2023-02-26T20:41:37.698Z,101258.28
2023-02-26T20:43:39.355Z,101254.91
2023-02-26T20:45:41.631Z,101262.25
2023-02-26T20:47:43.459Z,101259.50
2023-02-26T20:49:44.986Z,101262.59
2023-02-26T20:51:46.587Z,101258.50
2023-02-26T20:53:48.188Z,101263.84
2023-02-26T20:55:49.725Z,101268.19
2023-02-26T20:57:52.758Z,101262.88
2023-02-26T20:59:54.455Z,101264.88
2023-02-26T21:01:56.257Z,101262.53
2023-02-26T21:03:57.817Z,101270.63
2023-02-26T21:05:59.384Z,101273.34
2023-02-26T21:08:00.930Z,101273.09
2023-02-26T21:10:02.587Z,101274.97
2023-02-26T21:12:05.039Z,101277.00
2023-02-26T21:14:09.509Z,101277.69
2023-02-26T21:16:11.220Z,101276.69
2023-02-26T21:18:12.848Z,101274.06
2023-02-26T21:20:14.621Z,101279.25
2023-02-26T21:22:16.784Z,101278.13
2023-02-26T21:24:18.402Z,101283.31
2023-02-26T21:26:20.370Z,101284.56
2023-02-26T21:28:21.962Z,101288.28
2023-02-26T21:30:24.970Z,101288.06
2023-02-26T21:32:27.062Z,101287.41
2023-02-26T21:34:33.749Z,101294.34
2023-02-26T21:36:35.735Z,101289.00
2023-02-26T21:38:37.668Z,101294.56
2023-02-26T21:40:39.206Z,101293.91
2023-02-26T21:42:41.083Z,101302.50
2023-02-26T21:44:42.868Z,101300.06
2023-02-26T21:46:45.753Z,101296.50
2023-02-26T21:48:47.377Z,101303.66
2023-02-26T21:50:48.932Z,101295.63
2023-02-26T21:52:50.464Z,101301.97
2023-02-26T21:54:52.096Z,101299.41
2023-02-26T21:56:54.263Z,101296.41
2023-02-26T21:58:55.841Z,101297.28
2023-02-26T22:00:57.925Z,101293.66
2023-02-26T22:03:00.948Z,101296.75
2023-02-26T22:05:03.210Z,101296.09
2023-02-26T22:07:04.804Z,101296.31
2023-02-26T22:09:06.565Z,101293.88
2023-02-26T22:11:08.106Z,101287.75
2023-02-26T22:13:09.715Z,101293.09
2023-02-26T22:15:11.539Z,101292.06
2023-02-26T22:17:13.093Z,101291.63
2023-02-26T22:19:16.034Z,101287.75
2023-02-26T22:21:17.616Z,101293.31
2023-02-26T22:23:19.507Z,101285.72
2023-02-26T22:25:21.353Z,101287.22
2023-02-26T22:27:22.950Z,101280.03
2023-02-26T22:29:24.615Z,101288.41
2023-02-26T22:31:27.460Z,101285.97
2023-02-26T22:33:29.242Z,101296.81
2023-02-26T22:35:32.512Z,101302.97
2023-02-26T22:37:34.118Z,101303.16
2023-02-26T22:39:35.716Z,101309.31
2023-02-26T22:41:37.666Z,101301.31
2023-02-26T22:43:39.479Z,101304.16
2023-02-26T22:45:41.041Z,101303.09
2023-02-26T22:47:42.703Z,101304.97
2023-02-26T22:49:44.319Z,101302.91
2023-02-26T22:51:47.277Z,101302.88
2023-02-26T22:53:48.815Z,101301.78
2023-02-26T22:55:53.118Z,101301.63
2023-02-26T22:57:54.823Z,101296.84
2023-02-26T22:59:56.357Z,101300.63
2023-02-26T23:01:57.969Z,101302.66
2023-02-26T23:03:59.617Z,101304.63
2023-02-26T23:06:01.248Z,101310.97
2023-02-26T23:08:04.158Z,101305.66
2023-02-26T23:10:09.416Z,101312.41
2023-02-26T23:12:11.371Z,101303.56
2023-02-26T23:14:13.139Z,101309.06
2023-02-26T23:16:14.972Z,101307.06
2023-02-26T23:18:17.153Z,101315.72
2023-02-26T23:20:21.466Z,101312.63
2023-02-26T23:22:23.241Z,101310.94
2023-02-26T23:24:26.254Z,101302.88
2023-02-26T23:26:28.375Z,101305.28
2023-02-26T23:28:30.246Z,101305.81
2023-02-26T23:30:31.896Z,101305.06
2023-02-26T23:32:33.698Z,101307.78
2023-02-26T23:34:35.323Z,101305.09
2023-02-26T23:36:37.109Z,101307.03
2023-02-26T23:38:38.954Z,101306.59
2023-02-26T23:40:41.803Z,101305.72
2023-02-26T23:42:43.371Z,101297.91
2023-02-26T23:44:44.967Z,101309.28
2023-02-26T23:46:46.513Z,101312.22
2023-02-26T23:48:48.049Z,101307.06
2023-02-26T23:50:49.723Z,101309.97
2023-02-26T23:52:52.210Z,101310.78